sensor_id;sensor_type;location;lat;lon;timestamp;P1;durP1;ratioP1;P2;durP2;ratioP2
16928;SDS011;8581;47.334;11.190;2023-08-06T00:00:37;3.73;;;3.43;;
16928;SDS011;8581;47.334;11.190;2023-08-06T00:03:08;3.60;;;3.30;;
16928;SDS011;8581;47.334;11.190;2023-08-06T00:05:41;3.40;;;3.17;;
16928;SDS011;8581;47.334;11.190;2023-08-06T00:08:12;3.37;;;3.07;;
16928;SDS011;8581;47.334;11.190;2023-08-06T00:10:44;5.93;;;3.10;;
16928;SDS011;8581;47.334;11.190;2023-08-06T00:13:15;3.10;;;2.80;;
16928;SDS011;8581;47.334;11.190;2023-08-06T00:15:47;3.00;;;2.80;;
16928;SDS011;8581;47.334;11.190;2023-08-06T00:18:19;2.70;;;2.50;;
16928;SDS011;8581;47.334;11.190;2023-08-06T00:20:51;2.90;;;2.70;;
16928;SDS011;8581;47.334;11.190;2023-08-06T00:23:22;2.80;;;2.60;;
16928;SDS011;8581;47.334;11.190;2023-08-06T00:25:53;2.80;;;2.60;;
16928;SDS011;8581;47.334;11.190;2023-08-06T00:28:25;2.70;;;2.50;;
16928;SDS011;8581;47.334;11.190;2023-08-06T00:30:57;2.80;;;2.60;;
16928;SDS011;8581;47.334;11.190;2023-08-06T00:33:28;3.47;;;2.70;;
16928;SDS011;8581;47.334;11.190;2023-08-06T00:36:00;2.73;;;2.53;;
16928;SDS011;8581;47.334;11.190;2023-08-06T00:38:31;2.70;;;2.50;;
16928;SDS011;8581;47.334;11.190;2023-08-06T00:41:03;6.03;;;3.07;;
16928;SDS011;8581;47.334;11.190;2023-08-06T00:43:34;2.97;;;2.77;;
16928;SDS011;8581;47.334;11.190;2023-08-06T00:46:06;3.53;;;2.83;;
16928;SDS011;8581;47.334;11.190;2023-08-06T00:48:38;2.80;;;2.60;;
16928;SDS011;8581;47.334;11.190;2023-08-06T00:51:10;2.20;;;2.10;;
16928;SDS011;8581;47.334;11.190;2023-08-06T00:53:41;2.70;;;2.50;;
16928;SDS011;8581;47.334;11.190;2023-08-06T00:56:12;3.27;;;2.27;;
16928;SDS011;8581;47.334;11.190;2023-08-06T00:58:44;3.30;;;2.50;;
16928;SDS011;8581;47.334;11.190;2023-08-06T01:01:16;2.33;;;2.13;;
16928;SDS011;8581;47.334;11.190;2023-08-06T01:03:47;2.00;;;1.90;;
16928;SDS011;8581;47.334;11.190;2023-08-06T01:06:19;1.90;;;1.80;;
16928;SDS011;8581;47.334;11.190;2023-08-06T01:08:54;1.87;;;1.77;;
16928;SDS011;8581;47.334;11.190;2023-08-06T01:11:26;1.90;;;1.80;;
16928;SDS011;8581;47.334;11.190;2023-08-06T01:13:59;1.90;;;1.80;;
16928;SDS011;8581;47.334;11.190;2023-08-06T01:16:30;2.43;;;1.57;;
16928;SDS011;8581;47.334;11.190;2023-08-06T01:19:02;1.50;;;1.40;;
16928;SDS011;8581;47.334;11.190;2023-08-06T01:21:34;1.30;;;1.30;;
16928;SDS011;8581;47.334;11.190;2023-08-06T01:24:05;1.23;;;1.07;;
16928;SDS011;8581;47.334;11.190;2023-08-06T01:26:41;1.63;;;1.53;;
16928;SDS011;8581;47.334;11.190;2023-08-06T01:29:15;1.77;;;1.63;;
16928;SDS011;8581;47.334;11.190;2023-08-06T01:31:47;2.03;;;1.93;;
16928;SDS011;8581;47.334;11.190;2023-08-06T01:34:17;2.00;;;1.90;;
16928;SDS011;8581;47.334;11.190;2023-08-06T01:36:49;2.93;;;2.20;;
16928;SDS011;8581;47.334;11.190;2023-08-06T01:39:21;2.70;;;2.50;;
16928;SDS011;8581;47.334;11.190;2023-08-06T01:41:53;2.17;;;2.07;;
16928;SDS011;8581;47.334;11.190;2023-08-06T01:44:25;1.87;;;1.77;;
16928;SDS011;8581;47.334;11.190;2023-08-06T01:46:56;1.70;;;1.60;;
16928;SDS011;8581;47.334;11.190;2023-08-06T01:49:28;2.50;;;2.30;;
16928;SDS011;8581;47.334;11.190;2023-08-06T01:51:59;2.43;;;2.23;;
16928;SDS011;8581;47.334;11.190;2023-08-06T01:54:31;2.40;;;2.30;;
16928;SDS011;8581;47.334;11.190;2023-08-06T01:57:03;2.23;;;2.03;;
16928;SDS011;8581;47.334;11.190;2023-08-06T01:59:35;2.93;;;2.30;;
16928;SDS011;8581;47.334;11.190;2023-08-06T02:02:06;2.60;;;2.40;;
16928;SDS011;8581;47.334;11.190;2023-08-06T02:04:38;2.30;;;2.20;;
16928;SDS011;8581;47.334;11.190;2023-08-06T02:07:10;1.90;;;1.80;;
16928;SDS011;8581;47.334;11.190;2023-08-06T02:09:41;1.80;;;1.70;;
16928;SDS011;8581;47.334;11.190;2023-08-06T02:12:13;1.80;;;1.70;;
16928;SDS011;8581;47.334;11.190;2023-08-06T02:14:44;2.17;;;1.97;;
16928;SDS011;8581;47.334;11.190;2023-08-06T02:17:16;1.90;;;1.60;;
16928;SDS011;8581;47.334;11.190;2023-08-06T02:19:48;2.27;;;2.13;;
16928;SDS011;8581;47.334;11.190;2023-08-06T02:22:19;2.20;;;2.00;;
16928;SDS011;8581;47.334;11.190;2023-08-06T02:24:51;1.93;;;1.83;;
16928;SDS011;8581;47.334;11.190;2023-08-06T02:27:22;2.87;;;2.00;;
16928;SDS011;8581;47.334;11.190;2023-08-06T02:29:54;2.70;;;1.77;;
16928;SDS011;8581;47.334;11.190;2023-08-06T02:32:26;2.03;;;1.80;;
16928;SDS011;8581;47.334;11.190;2023-08-06T02:34:57;3.50;;;3.20;;
16928;SDS011;8581;47.334;11.190;2023-08-06T02:37:29;1.90;;;1.80;;
16928;SDS011;8581;47.334;11.190;2023-08-06T02:40:00;1.80;;;1.70;;
16928;SDS011;8581;47.334;11.190;2023-08-06T02:42:32;1.93;;;1.50;;
16928;SDS011;8581;47.334;11.190;2023-08-06T02:45:04;1.60;;;1.50;;
16928;SDS011;8581;47.334;11.190;2023-08-06T02:47:36;2.23;;;1.80;;
16928;SDS011;8581;47.334;11.190;2023-08-06T02:50:08;1.87;;;1.77;;
16928;SDS011;8581;47.334;11.190;2023-08-06T02:52:40;1.63;;;1.40;;
16928;SDS011;8581;47.334;11.190;2023-08-06T02:55:11;1.63;;;1.53;;
16928;SDS011;8581;47.334;11.190;2023-08-06T02:57:43;1.73;;;1.63;;
16928;SDS011;8581;47.334;11.190;2023-08-06T03:00:14;1.50;;;1.40;;
16928;SDS011;8581;47.334;11.190;2023-08-06T03:02:46;1.60;;;1.50;;
16928;SDS011;8581;47.334;11.190;2023-08-06T03:05:18;1.70;;;1.60;;
16928;SDS011;8581;47.334;11.190;2023-08-06T03:07:49;1.93;;;1.83;;
16928;SDS011;8581;47.334;11.190;2023-08-06T03:10:21;1.93;;;1.63;;
16928;SDS011;8581;47.334;11.190;2023-08-06T03:12:52;2.00;;;1.90;;
16928;SDS011;8581;47.334;11.190;2023-08-06T03:15:24;1.93;;;1.83;;
16928;SDS011;8581;47.334;11.190;2023-08-06T03:17:56;1.90;;;1.80;;
16928;SDS011;8581;47.334;11.190;2023-08-06T03:20:27;2.77;;;1.70;;
16928;SDS011;8581;47.334;11.190;2023-08-06T03:22:59;1.70;;;1.60;;
16928;SDS011;8581;47.334;11.190;2023-08-06T03:25:30;1.67;;;1.57;;
16928;SDS011;8581;47.334;11.190;2023-08-06T03:28:02;2.20;;;1.40;;
16928;SDS011;8581;47.334;11.190;2023-08-06T03:30:34;2.17;;;1.37;;
16928;SDS011;8581;47.334;11.190;2023-08-06T03:33:05;1.47;;;1.37;;
16928;SDS011;8581;47.334;11.190;2023-08-06T03:35:37;1.70;;;1.60;;
16928;SDS011;8581;47.334;11.190;2023-08-06T03:38:08;2.80;;;1.60;;
16928;SDS011;8581;47.334;11.190;2023-08-06T03:40:40;4.80;;;1.70;;
16928;SDS011;8581;47.334;11.190;2023-08-06T03:43:12;12.50;;;2.30;;
16928;SDS011;8581;47.334;11.190;2023-08-06T03:45:43;1.80;;;1.70;;
16928;SDS011;8581;47.334;11.190;2023-08-06T03:48:15;1.80;;;1.60;;
16928;SDS011;8581;47.334;11.190;2023-08-06T03:50:46;2.77;;;1.70;;
16928;SDS011;8581;47.334;11.190;2023-08-06T03:53:18;2.40;;;1.73;;
16928;SDS011;8581;47.334;11.190;2023-08-06T03:55:49;1.80;;;1.70;;
16928;SDS011;8581;47.334;11.190;2023-08-06T03:58:21;1.50;;;1.40;;
16928;SDS011;8581;47.334;11.190;2023-08-06T04:00:57;1.60;;;1.50;;
16928;SDS011;8581;47.334;11.190;2023-08-06T04:03:29;1.53;;;1.43;;
16928;SDS011;8581;47.334;11.190;2023-08-06T04:06:02;1.40;;;1.30;;
16928;SDS011;8581;47.334;11.190;2023-08-06T04:08:34;1.60;;;1.50;;
16928;SDS011;8581;47.334;11.190;2023-08-06T04:11:06;1.33;;;1.23;;
16928;SDS011;8581;47.334;11.190;2023-08-06T04:13:37;1.27;;;1.17;;
16928;SDS011;8581;47.334;11.190;2023-08-06T04:16:09;1.30;;;1.20;;
16928;SDS011;8581;47.334;11.190;2023-08-06T04:18:41;1.30;;;1.10;;
16928;SDS011;8581;47.334;11.190;2023-08-06T04:21:12;1.37;;;1.27;;
16928;SDS011;8581;47.334;11.190;2023-08-06T04:23:44;1.47;;;1.37;;
16928;SDS011;8581;47.334;11.190;2023-08-06T04:26:15;1.30;;;1.20;;
16928;SDS011;8581;47.334;11.190;2023-08-06T04:28:47;1.50;;;1.40;;
16928;SDS011;8581;47.334;11.190;2023-08-06T04:31:18;1.87;;;1.50;;
16928;SDS011;8581;47.334;11.190;2023-08-06T04:33:50;1.67;;;1.57;;
16928;SDS011;8581;47.334;11.190;2023-08-06T04:36:21;17.53;;;2.83;;
16928;SDS011;8581;47.334;11.190;2023-08-06T04:38:53;52.73;;;5.23;;
16928;SDS011;8581;47.334;11.190;2023-08-06T04:41:25;36.37;;;4.10;;
16928;SDS011;8581;47.334;11.190;2023-08-06T04:43:56;87.93;;;6.43;;
16928;SDS011;8581;47.334;11.190;2023-08-06T04:46:28;116.10;;;9.83;;
16928;SDS011;8581;47.334;11.190;2023-08-06T04:48:59;39.17;;;7.43;;
16928;SDS011;8581;47.334;11.190;2023-08-06T04:51:31;72.57;;;5.73;;
16928;SDS011;8581;47.334;11.190;2023-08-06T04:54:03;111.77;;;6.70;;
16928;SDS011;8581;47.334;11.190;2023-08-06T04:56:34;32.03;;;4.30;;
16928;SDS011;8581;47.334;11.190;2023-08-06T04:59:06;8.53;;;2.63;;
16928;SDS011;8581;47.334;11.190;2023-08-06T05:01:37;50.93;;;4.43;;
16928;SDS011;8581;47.334;11.190;2023-08-06T05:04:09;36.17;;;3.27;;
16928;SDS011;8581;47.334;11.190;2023-08-06T05:06:41;30.23;;;3.40;;
16928;SDS011;8581;47.334;11.190;2023-08-06T05:09:12;17.43;;;2.83;;
16928;SDS011;8581;47.334;11.190;2023-08-06T05:11:44;17.37;;;2.70;;
16928;SDS011;8581;47.334;11.190;2023-08-06T05:14:15;34.37;;;4.00;;
16928;SDS011;8581;47.334;11.190;2023-08-06T05:16:47;68.53;;;5.10;;
16928;SDS011;8581;47.334;11.190;2023-08-06T05:19:18;2.70;;;1.90;;
16928;SDS011;8581;47.334;11.190;2023-08-06T05:21:50;6.00;;;2.23;;
16928;SDS011;8581;47.334;11.190;2023-08-06T05:24:22;11.23;;;2.10;;
16928;SDS011;8581;47.334;11.190;2023-08-06T05:26:53;1.97;;;1.87;;
16928;SDS011;8581;47.334;11.190;2023-08-06T05:29:25;1.80;;;1.70;;
16928;SDS011;8581;47.334;11.190;2023-08-06T05:31:56;1.50;;;1.40;;
16928;SDS011;8581;47.334;11.190;2023-08-06T05:34:28;2.60;;;1.37;;
16928;SDS011;8581;47.334;11.190;2023-08-06T05:37:00;1.60;;;1.50;;
16928;SDS011;8581;47.334;11.190;2023-08-06T05:39:31;1.47;;;1.37;;
16928;SDS011;8581;47.334;11.190;2023-08-06T05:42:03;1.93;;;1.60;;
16928;SDS011;8581;47.334;11.190;2023-08-06T05:44:35;1.83;;;1.73;;
16928;SDS011;8581;47.334;11.190;2023-08-06T05:47:07;1.87;;;1.40;;
16928;SDS011;8581;47.334;11.190;2023-08-06T05:49:38;2.27;;;1.67;;
16928;SDS011;8581;47.334;11.190;2023-08-06T05:52:10;2.27;;;1.53;;
16928;SDS011;8581;47.334;11.190;2023-08-06T05:54:42;1.93;;;1.37;;
16928;SDS011;8581;47.334;11.190;2023-08-06T05:57:13;1.50;;;1.40;;
16928;SDS011;8581;47.334;11.190;2023-08-06T05:59:45;2.30;;;1.40;;
16928;SDS011;8581;47.334;11.190;2023-08-06T06:02:16;2.07;;;1.30;;
16928;SDS011;8581;47.334;11.190;2023-08-06T06:04:48;1.40;;;1.10;;
16928;SDS011;8581;47.334;11.190;2023-08-06T06:07:20;1.53;;;1.03;;
16928;SDS011;8581;47.334;11.190;2023-08-06T06:09:51;1.30;;;1.20;;
16928;SDS011;8581;47.334;11.190;2023-08-06T06:12:23;1.33;;;1.20;;
16928;SDS011;8581;47.334;11.190;2023-08-06T06:14:54;2.13;;;1.30;;
16928;SDS011;8581;47.334;11.190;2023-08-06T06:17:26;1.03;;;1.03;;
16928;SDS011;8581;47.334;11.190;2023-08-06T06:19:58;1.03;;;1.03;;
16928;SDS011;8581;47.334;11.190;2023-08-06T06:22:30;1.17;;;1.07;;
16928;SDS011;8581;47.334;11.190;2023-08-06T06:25:01;1.00;;;1.00;;
16928;SDS011;8581;47.334;11.190;2023-08-06T06:27:34;1.10;;;1.10;;
16928;SDS011;8581;47.334;11.190;2023-08-06T06:30:06;1.57;;;1.10;;
16928;SDS011;8581;47.334;11.190;2023-08-06T06:32:38;1.10;;;1.10;;
16928;SDS011;8581;47.334;11.190;2023-08-06T06:35:10;1.20;;;1.10;;
16928;SDS011;8581;47.334;11.190;2023-08-06T06:37:41;1.27;;;1.00;;
16928;SDS011;8581;47.334;11.190;2023-08-06T06:40:13;2.13;;;0.90;;
16928;SDS011;8581;47.334;11.190;2023-08-06T06:42:44;0.93;;;0.90;;
16928;SDS011;8581;47.334;11.190;2023-08-06T06:45:16;3.13;;;2.20;;
16928;SDS011;8581;47.334;11.190;2023-08-06T06:47:48;2.87;;;2.60;;
16928;SDS011;8581;47.334;11.190;2023-08-06T06:50:19;2.40;;;2.20;;
16928;SDS011;8581;47.334;11.190;2023-08-06T06:52:51;1.97;;;1.87;;
16928;SDS011;8581;47.334;11.190;2023-08-06T06:55:22;2.50;;;1.10;;
16928;SDS011;8581;47.334;11.190;2023-08-06T06:57:54;1.80;;;1.70;;
16928;SDS011;8581;47.334;11.190;2023-08-06T07:00:26;0.83;;;0.83;;
16928;SDS011;8581;47.334;11.190;2023-08-06T07:02:57;0.97;;;0.90;;
16928;SDS011;8581;47.334;11.190;2023-08-06T07:05:29;0.97;;;0.97;;
16928;SDS011;8581;47.334;11.190;2023-08-06T07:08:00;2.63;;;2.43;;
16928;SDS011;8581;47.334;11.190;2023-08-06T07:10:32;2.77;;;2.40;;
16928;SDS011;8581;47.334;11.190;2023-08-06T07:13:04;1.27;;;1.10;;
16928;SDS011;8581;47.334;11.190;2023-08-06T07:15:35;0.80;;;0.80;;
16928;SDS011;8581;47.334;11.190;2023-08-06T07:18:07;0.80;;;0.80;;
16928;SDS011;8581;47.334;11.190;2023-08-06T07:20:38;0.80;;;0.80;;
16928;SDS011;8581;47.334;11.190;2023-08-06T07:23:10;1.03;;;0.90;;
16928;SDS011;8581;47.334;11.190;2023-08-06T07:25:41;1.37;;;1.27;;
16928;SDS011;8581;47.334;11.190;2023-08-06T07:28:13;0.80;;;0.80;;
16928;SDS011;8581;47.334;11.190;2023-08-06T07:30:45;1.00;;;0.90;;
16928;SDS011;8581;47.334;11.190;2023-08-06T07:33:16;0.80;;;0.60;;
16928;SDS011;8581;47.334;11.190;2023-08-06T07:35:49;0.80;;;0.80;;
16928;SDS011;8581;47.334;11.190;2023-08-06T07:38:20;0.60;;;0.60;;
16928;SDS011;8581;47.334;11.190;2023-08-06T07:40:52;0.70;;;0.70;;
16928;SDS011;8581;47.334;11.190;2023-08-06T07:43:23;0.73;;;0.73;;
16928;SDS011;8581;47.334;11.190;2023-08-06T07:45:57;0.80;;;0.77;;
16928;SDS011;8581;47.334;11.190;2023-08-06T07:48:29;1.03;;;1.00;;
16928;SDS011;8581;47.334;11.190;2023-08-06T07:51:00;1.10;;;1.00;;
16928;SDS011;8581;47.334;11.190;2023-08-06T07:53:32;2.00;;;1.03;;
16928;SDS011;8581;47.334;11.190;2023-08-06T07:56:03;1.10;;;1.00;;
16928;SDS011;8581;47.334;11.190;2023-08-06T07:58:35;1.10;;;1.00;;
16928;SDS011;8581;47.334;11.190;2023-08-06T08:01:07;1.47;;;1.10;;
16928;SDS011;8581;47.334;11.190;2023-08-06T08:03:38;1.17;;;1.07;;
16928;SDS011;8581;47.334;11.190;2023-08-06T08:06:10;1.30;;;0.90;;
16928;SDS011;8581;47.334;11.190;2023-08-06T08:08:42;3.37;;;2.87;;
16928;SDS011;8581;47.334;11.190;2023-08-06T08:11:13;1.80;;;0.90;;
16928;SDS011;8581;47.334;11.190;2023-08-06T08:13:45;1.00;;;0.90;;
16928;SDS011;8581;47.334;11.190;2023-08-06T08:16:16;0.80;;;0.80;;
16928;SDS011;8581;47.334;11.190;2023-08-06T08:18:48;2.40;;;1.23;;
16928;SDS011;8581;47.334;11.190;2023-08-06T08:21:20;2.90;;;1.00;;
16928;SDS011;8581;47.334;11.190;2023-08-06T08:23:51;1.03;;;0.80;;
16928;SDS011;8581;47.334;11.190;2023-08-06T08:26:23;1.00;;;0.80;;
16928;SDS011;8581;47.334;11.190;2023-08-06T08:28:55;0.63;;;0.63;;
16928;SDS011;8581;47.334;11.190;2023-08-06T08:31:26;0.80;;;0.80;;
16928;SDS011;8581;47.334;11.190;2023-08-06T08:33:58;0.60;;;0.60;;
16928;SDS011;8581;47.334;11.190;2023-08-06T08:36:29;0.90;;;0.80;;
16928;SDS011;8581;47.334;11.190;2023-08-06T08:39:01;0.90;;;0.90;;
16928;SDS011;8581;47.334;11.190;2023-08-06T08:41:33;1.20;;;1.10;;
16928;SDS011;8581;47.334;11.190;2023-08-06T08:44:05;1.20;;;0.90;;
16928;SDS011;8581;47.334;11.190;2023-08-06T08:46:36;1.00;;;0.90;;
16928;SDS011;8581;47.334;11.190;2023-08-06T08:49:07;0.70;;;0.70;;
16928;SDS011;8581;47.334;11.190;2023-08-06T08:51:39;1.17;;;0.70;;
16928;SDS011;8581;47.334;11.190;2023-08-06T08:54:11;0.70;;;0.70;;
16928;SDS011;8581;47.334;11.190;2023-08-06T08:56:42;0.67;;;0.67;;
16928;SDS011;8581;47.334;11.190;2023-08-06T08:59:14;0.80;;;0.70;;
16928;SDS011;8581;47.334;11.190;2023-08-06T09:01:45;2.47;;;1.70;;
16928;SDS011;8581;47.334;11.190;2023-08-06T09:04:17;1.50;;;0.97;;
16928;SDS011;8581;47.334;11.190;2023-08-06T09:06:50;0.80;;;0.80;;
16928;SDS011;8581;47.334;11.190;2023-08-06T09:09:25;0.90;;;0.80;;
16928;SDS011;8581;47.334;11.190;2023-08-06T09:11:58;0.57;;;0.47;;
16928;SDS011;8581;47.334;11.190;2023-08-06T09:14:27;0.53;;;0.40;;
16928;SDS011;8581;47.334;11.190;2023-08-06T09:16:59;0.20;;;0.20;;
16928;SDS011;8581;47.334;11.190;2023-08-06T09:19:30;0.53;;;0.50;;
16928;SDS011;8581;47.334;11.190;2023-08-06T09:22:02;0.97;;;0.60;;
16928;SDS011;8581;47.334;11.190;2023-08-06T09:24:33;1.40;;;0.97;;
16928;SDS011;8581;47.334;11.190;2023-08-06T09:27:05;1.73;;;0.50;;
16928;SDS011;8581;47.334;11.190;2023-08-06T09:29:39;0.47;;;0.40;;
16928;SDS011;8581;47.334;11.190;2023-08-06T09:32:08;0.80;;;0.30;;
16928;SDS011;8581;47.334;11.190;2023-08-06T09:34:41;0.20;;;0.20;;
16928;SDS011;8581;47.334;11.190;2023-08-06T09:37:11;0.20;;;0.20;;
16928;SDS011;8581;47.334;11.190;2023-08-06T09:39:43;0.30;;;0.30;;
16928;SDS011;8581;47.334;11.190;2023-08-06T09:42:15;0.35;;;0.33;;
16928;SDS011;8581;47.334;11.190;2023-08-06T09:44:46;0.40;;;0.37;;
16928;SDS011;8581;47.334;11.190;2023-08-06T09:47:18;0.47;;;0.47;;
16928;SDS011;8581;47.334;11.190;2023-08-06T09:49:50;0.95;;;0.37;;
16928;SDS011;8581;47.334;11.190;2023-08-06T09:52:21;0.60;;;0.60;;
16928;SDS011;8581;47.334;11.190;2023-08-06T09:54:53;1.65;;;0.90;;
16928;SDS011;8581;47.334;11.190;2023-08-06T09:57:24;0.50;;;0.50;;
16928;SDS011;8581;47.334;11.190;2023-08-06T09:59:56;0.70;;;0.70;;
16928;SDS011;8581;47.334;11.190;2023-08-06T10:02:28;0.30;;;0.30;;
16928;SDS011;8581;47.334;11.190;2023-08-06T10:04:59;0.42;;;0.42;;
16928;SDS011;8581;47.334;11.190;2023-08-06T10:07:31;0.62;;;0.50;;
16928;SDS011;8581;47.334;11.190;2023-08-06T10:10:03;0.40;;;0.40;;
16928;SDS011;8581;47.334;11.190;2023-08-06T10:12:37;0.25;;;0.25;;
16928;SDS011;8581;47.334;11.190;2023-08-06T10:15:09;0.30;;;0.30;;
16928;SDS011;8581;47.334;11.190;2023-08-06T10:17:40;1.32;;;0.30;;
16928;SDS011;8581;47.334;11.190;2023-08-06T10:20:12;0.23;;;0.23;;
16928;SDS011;8581;47.334;11.190;2023-08-06T10:22:43;0.33;;;0.30;;
16928;SDS011;8581;47.334;11.190;2023-08-06T10:25:16;0.40;;;0.30;;
16928;SDS011;8581;47.334;11.190;2023-08-06T10:27:54;0.30;;;0.30;;
16928;SDS011;8581;47.334;11.190;2023-08-06T10:30:27;0.62;;;0.37;;
16928;SDS011;8581;47.334;11.190;2023-08-06T10:32:58;0.33;;;0.25;;
16928;SDS011;8581;47.334;11.190;2023-08-06T10:35:36;0.33;;;0.30;;
16928;SDS011;8581;47.334;11.190;2023-08-06T10:38:11;1.35;;;0.40;;
16928;SDS011;8581;47.334;11.190;2023-08-06T10:40:48;0.33;;;0.33;;
16928;SDS011;8581;47.334;11.190;2023-08-06T10:43:27;0.30;;;0.30;;
16928;SDS011;8581;47.334;11.190;2023-08-06T10:46:00;0.42;;;0.40;;
16928;SDS011;8581;47.334;11.190;2023-08-06T10:48:34;0.30;;;0.30;;
16928;SDS011;8581;47.334;11.190;2023-08-06T10:51:08;0.35;;;0.35;;
16928;SDS011;8581;47.334;11.190;2023-08-06T10:53:42;0.42;;;0.20;;
16928;SDS011;8581;47.334;11.190;2023-08-06T10:56:13;0.23;;;0.23;;
16928;SDS011;8581;47.334;11.190;2023-08-06T10:58:46;0.30;;;0.30;;
16928;SDS011;8581;47.334;11.190;2023-08-06T11:01:17;0.40;;;0.30;;
16928;SDS011;8581;47.334;11.190;2023-08-06T11:03:49;0.62;;;0.30;;
16928;SDS011;8581;47.334;11.190;2023-08-06T11:06:21;0.10;;;0.10;;
16928;SDS011;8581;47.334;11.190;2023-08-06T11:08:53;0.97;;;0.37;;
16928;SDS011;8581;47.334;11.190;2023-08-06T11:11:25;0.40;;;0.20;;
16928;SDS011;8581;47.334;11.190;2023-08-06T11:13:56;0.50;;;0.20;;
16928;SDS011;8581;47.334;11.190;2023-08-06T11:16:28;0.20;;;0.20;;
16928;SDS011;8581;47.334;11.190;2023-08-06T11:18:59;1.60;;;0.10;;
16928;SDS011;8581;47.334;11.190;2023-08-06T11:21:31;0.70;;;0.25;;
16928;SDS011;8581;47.334;11.190;2023-08-06T11:24:03;0.20;;;0.20;;
16928;SDS011;8581;47.334;11.190;2023-08-06T11:26:34;0.55;;;0.10;;
16928;SDS011;8581;47.334;11.190;2023-08-06T11:29:06;0.10;;;0.10;;
16928;SDS011;8581;47.334;11.190;2023-08-06T11:31:38;0.60;;;0.10;;
16928;SDS011;8581;47.334;11.190;2023-08-06T11:34:09;0.10;;;0.10;;
16928;SDS011;8581;47.334;11.190;2023-08-06T11:36:41;0.00;;;0.00;;
16928;SDS011;8581;47.334;11.190;2023-08-06T11:39:12;0.20;;;0.20;;
16928;SDS011;8581;47.334;11.190;2023-08-06T11:41:44;0.20;;;0.20;;
16928;SDS011;8581;47.334;11.190;2023-08-06T11:44:19;0.00;;;0.00;;
16928;SDS011;8581;47.334;11.190;2023-08-06T11:46:50;0.13;;;0.13;;
16928;SDS011;8581;47.334;11.190;2023-08-06T11:49:57;0.30;;;0.30;;
16928;SDS011;8581;47.334;11.190;2023-08-06T11:52:14;0.63;;;0.10;;
16928;SDS011;8581;47.334;11.190;2023-08-06T11:54:47;0.30;;;0.30;;
16928;SDS011;8581;47.334;11.190;2023-08-06T11:57:19;0.40;;;0.20;;
16928;SDS011;8581;47.334;11.190;2023-08-06T11:59:50;0.10;;;0.10;;
16928;SDS011;8581;47.334;11.190;2023-08-06T12:02:22;0.17;;;0.17;;
16928;SDS011;8581;47.334;11.190;2023-08-06T12:04:57;0.30;;;0.30;;
16928;SDS011;8581;47.334;11.190;2023-08-06T12:07:29;0.20;;;0.20;;
16928;SDS011;8581;47.334;11.190;2023-08-06T12:10:01;0.10;;;0.10;;
16928;SDS011;8581;47.334;11.190;2023-08-06T12:12:32;0.90;;;0.10;;
16928;SDS011;8581;47.334;11.190;2023-08-06T12:15:04;0.10;;;0.10;;
16928;SDS011;8581;47.334;11.190;2023-08-06T12:17:38;0.20;;;0.20;;
16928;SDS011;8581;47.334;11.190;2023-08-06T12:20:10;0.03;;;0.03;;
16928;SDS011;8581;47.334;11.190;2023-08-06T12:22:41;0.00;;;0.00;;
16928;SDS011;8581;47.334;11.190;2023-08-06T12:25:13;0.05;;;0.05;;
16928;SDS011;8581;47.334;11.190;2023-08-06T12:27:44;0.10;;;0.10;;
16928;SDS011;8581;47.334;11.190;2023-08-06T12:30:17;0.08;;;0.08;;
16928;SDS011;8581;47.334;11.190;2023-08-06T12:32:48;0.28;;;0.28;;
16928;SDS011;8581;47.334;11.190;2023-08-06T12:35:20;0.30;;;0.30;;
16928;SDS011;8581;47.334;11.190;2023-08-06T12:37:51;0.10;;;0.10;;
16928;SDS011;8581;47.334;11.190;2023-08-06T12:40:24;0.10;;;0.10;;
16928;SDS011;8581;47.334;11.190;2023-08-06T12:42:55;0.17;;;0.17;;
16928;SDS011;8581;47.334;11.190;2023-08-06T12:45:26;0.20;;;0.20;;
16928;SDS011;8581;47.334;11.190;2023-08-06T12:47:58;0.20;;;0.20;;
16928;SDS011;8581;47.334;11.190;2023-08-06T12:50:30;0.45;;;0.23;;
16928;SDS011;8581;47.334;11.190;2023-08-06T12:53:01;0.20;;;0.20;;
16928;SDS011;8581;47.334;11.190;2023-08-06T12:55:33;0.10;;;0.10;;
16928;SDS011;8581;47.334;11.190;2023-08-06T12:58:04;0.15;;;0.15;;
16928;SDS011;8581;47.334;11.190;2023-08-06T13:00:36;0.10;;;0.10;;
16928;SDS011;8581;47.334;11.190;2023-08-06T13:03:08;0.10;;;0.10;;
16928;SDS011;8581;47.334;11.190;2023-08-06T13:05:39;0.05;;;0.05;;
16928;SDS011;8581;47.334;11.190;2023-08-06T13:08:11;0.00;;;0.00;;
16928;SDS011;8581;47.334;11.190;2023-08-06T13:10:43;0.10;;;0.10;;
16928;SDS011;8581;47.334;11.190;2023-08-06T13:13:14;0.05;;;0.00;;
16928;SDS011;8581;47.334;11.190;2023-08-06T13:15:46;0.00;;;0.00;;
16928;SDS011;8581;47.334;11.190;2023-08-06T13:18:17;0.03;;;0.03;;
16928;SDS011;8581;47.334;11.190;2023-08-06T13:20:49;0.10;;;0.10;;
16928;SDS011;8581;47.334;11.190;2023-08-06T13:23:20;0.00;;;0.00;;
16928;SDS011;8581;47.334;11.190;2023-08-06T13:25:53;0.10;;;0.10;;
16928;SDS011;8581;47.334;11.190;2023-08-06T13:28:24;0.00;;;0.00;;
16928;SDS011;8581;47.334;11.190;2023-08-06T13:30:55;1.75;;;0.10;;
16928;SDS011;8581;47.334;11.190;2023-08-06T13:33:27;0.03;;;0.03;;
16928;SDS011;8581;47.334;11.190;2023-08-06T13:35:58;0.10;;;0.08;;
16928;SDS011;8581;47.334;11.190;2023-08-06T13:38:30;0.03;;;0.03;;
16928;SDS011;8581;47.334;11.190;2023-08-06T13:41:02;0.00;;;0.00;;
16928;SDS011;8581;47.334;11.190;2023-08-06T13:43:33;0.00;;;0.00;;
16928;SDS011;8581;47.334;11.190;2023-08-06T13:46:05;0.00;;;0.00;;
16928;SDS011;8581;47.334;11.190;2023-08-06T13:48:36;0.10;;;0.10;;
16928;SDS011;8581;47.334;11.190;2023-08-06T13:51:08;0.00;;;0.00;;
16928;SDS011;8581;47.334;11.190;2023-08-06T13:53:40;0.10;;;0.10;;
16928;SDS011;8581;47.334;11.190;2023-08-06T13:56:11;0.40;;;0.10;;
16928;SDS011;8581;47.334;11.190;2023-08-06T13:58:43;0.10;;;0.10;;
16928;SDS011;8581;47.334;11.190;2023-08-06T14:01:16;0.20;;;0.20;;
16928;SDS011;8581;47.334;11.190;2023-08-06T14:03:46;0.20;;;0.20;;
16928;SDS011;8581;47.334;11.190;2023-08-06T14:06:18;0.55;;;0.20;;
16928;SDS011;8581;47.334;11.190;2023-08-06T14:08:49;0.03;;;0.03;;
16928;SDS011;8581;47.334;11.190;2023-08-06T14:11:21;0.10;;;0.10;;
16928;SDS011;8581;47.334;11.190;2023-08-06T14:13:52;0.10;;;0.10;;
16928;SDS011;8581;47.334;11.190;2023-08-06T14:16:24;0.20;;;0.20;;
16928;SDS011;8581;47.334;11.190;2023-08-06T14:18:56;1.07;;;0.20;;
16928;SDS011;8581;47.334;11.190;2023-08-06T14:21:27;0.30;;;0.30;;
16928;SDS011;8581;47.334;11.190;2023-08-06T14:23:59;0.30;;;0.30;;
16928;SDS011;8581;47.334;11.190;2023-08-06T14:26:30;0.30;;;0.30;;
16928;SDS011;8581;47.334;11.190;2023-08-06T14:29:02;0.20;;;0.20;;
16928;SDS011;8581;47.334;11.190;2023-08-06T14:31:34;0.80;;;0.80;;
16928;SDS011;8581;47.334;11.190;2023-08-06T14:34:05;0.20;;;0.20;;
16928;SDS011;8581;47.334;11.190;2023-08-06T14:36:37;0.37;;;0.37;;
16928;SDS011;8581;47.334;11.190;2023-08-06T14:39:08;0.20;;;0.20;;
16928;SDS011;8581;47.334;11.190;2023-08-06T14:41:40;0.57;;;0.57;;
16928;SDS011;8581;47.334;11.190;2023-08-06T14:44:11;0.40;;;0.40;;
16928;SDS011;8581;47.334;11.190;2023-08-06T14:46:43;0.10;;;0.10;;
16928;SDS011;8581;47.334;11.190;2023-08-06T14:49:15;0.10;;;0.10;;
16928;SDS011;8581;47.334;11.190;2023-08-06T14:51:46;0.50;;;0.50;;
16928;SDS011;8581;47.334;11.190;2023-08-06T14:54:19;0.60;;;0.60;;
16928;SDS011;8581;47.334;11.190;2023-08-06T14:56:50;0.70;;;0.70;;
16928;SDS011;8581;47.334;11.190;2023-08-06T14:59:22;0.50;;;0.50;;
16928;SDS011;8581;47.334;11.190;2023-08-06T15:01:53;0.45;;;0.45;;
16928;SDS011;8581;47.334;11.190;2023-08-06T15:04:25;1.87;;;1.77;;
16928;SDS011;8581;47.334;11.190;2023-08-06T15:06:57;0.40;;;0.40;;
16928;SDS011;8581;47.334;11.190;2023-08-06T15:09:28;0.98;;;0.98;;
16928;SDS011;8581;47.334;11.190;2023-08-06T15:12:00;0.65;;;0.65;;
16928;SDS011;8581;47.334;11.190;2023-08-06T15:14:31;0.20;;;0.20;;